sensor_id;sensor_type;location;lat;lon;timestamp;P1;durP1;ratioP1;P2;durP2;ratioP2
82869;SDS011;72645;47.136;15.420;2024-01-06T00:00:36;11.70;;;6.80;;
82869;SDS011;72645;47.136;15.420;2024-01-06T00:03:07;11.70;;;5.70;;
82869;SDS011;72645;47.136;15.420;2024-01-06T00:05:38;16.20;;;6.30;;
82869;SDS011;72645;47.136;15.420;2024-01-06T00:08:09;12.90;;;6.20;;
82869;SDS011;72645;47.136;15.420;2024-01-06T00:10:40;14.30;;;7.00;;
82869;SDS011;72645;47.136;15.420;2024-01-06T00:13:13;10.60;;;5.50;;
82869;SDS011;72645;47.136;15.420;2024-01-06T00:15:44;12.60;;;6.00;;
82869;SDS011;72645;47.136;15.420;2024-01-06T00:18:15;11.10;;;5.80;;
82869;SDS011;72645;47.136;15.420;2024-01-06T00:20:46;10.20;;;5.20;;
82869;SDS011;72645;47.136;15.420;2024-01-06T00:23:18;11.80;;;5.70;;
82869;SDS011;72645;47.136;15.420;2024-01-06T00:25:49;9.80;;;5.40;;
82869;SDS011;72645;47.136;15.420;2024-01-06T00:28:20;8.80;;;5.20;;
82869;SDS011;72645;47.136;15.420;2024-01-06T00:30:51;12.90;;;5.50;;
82869;SDS011;72645;47.136;15.420;2024-01-06T00:33:22;10.80;;;5.20;;
82869;SDS011;72645;47.136;15.420;2024-01-06T00:35:53;12.60;;;5.50;;
82869;SDS011;72645;47.136;15.420;2024-01-06T00:38:24;9.20;;;5.30;;
82869;SDS011;72645;47.136;15.420;2024-01-06T00:40:55;10.00;;;5.60;;
82869;SDS011;72645;47.136;15.420;2024-01-06T00:43:26;14.40;;;5.50;;
82869;SDS011;72645;47.136;15.420;2024-01-06T00:45:57;9.90;;;4.60;;
82869;SDS011;72645;47.136;15.420;2024-01-06T00:48:28;8.30;;;4.70;;
82869;SDS011;72645;47.136;15.420;2024-01-06T00:50:59;7.40;;;4.20;;
82869;SDS011;72645;47.136;15.420;2024-01-06T00:53:30;8.90;;;3.70;;
82869;SDS011;72645;47.136;15.420;2024-01-06T00:56:01;8.50;;;4.70;;
82869;SDS011;72645;47.136;15.420;2024-01-06T00:58:33;11.00;;;4.90;;
82869;SDS011;72645;47.136;15.420;2024-01-06T01:01:04;10.80;;;4.10;;
82869;SDS011;72645;47.136;15.420;2024-01-06T01:03:35;9.30;;;4.30;;
82869;SDS011;72645;47.136;15.420;2024-01-06T01:06:06;8.20;;;4.30;;
82869;SDS011;72645;47.136;15.420;2024-01-06T01:08:37;8.60;;;4.10;;
82869;SDS011;72645;47.136;15.420;2024-01-06T01:11:08;8.30;;;4.10;;
82869;SDS011;72645;47.136;15.420;2024-01-06T01:13:40;6.50;;;3.10;;
82869;SDS011;72645;47.136;15.420;2024-01-06T01:16:11;10.60;;;4.70;;
82869;SDS011;72645;47.136;15.420;2024-01-06T01:18:42;9.70;;;3.70;;
82869;SDS011;72645;47.136;15.420;2024-01-06T01:21:14;8.30;;;4.50;;
82869;SDS011;72645;47.136;15.420;2024-01-06T01:23:45;9.70;;;4.90;;
82869;SDS011;72645;47.136;15.420;2024-01-06T01:26:16;18.40;;;4.70;;
82869;SDS011;72645;47.136;15.420;2024-01-06T01:28:47;9.60;;;3.80;;
82869;SDS011;72645;47.136;15.420;2024-01-06T01:31:18;9.60;;;4.40;;
82869;SDS011;72645;47.136;15.420;2024-01-06T01:33:49;9.50;;;4.10;;
82869;SDS011;72645;47.136;15.420;2024-01-06T01:36:20;11.40;;;5.00;;
82869;SDS011;72645;47.136;15.420;2024-01-06T01:38:51;8.60;;;4.10;;
82869;SDS011;72645;47.136;15.420;2024-01-06T01:41:22;8.80;;;4.40;;
82869;SDS011;72645;47.136;15.420;2024-01-06T01:43:53;13.10;;;3.80;;
82869;SDS011;72645;47.136;15.420;2024-01-06T01:46:29;7.70;;;3.90;;
82869;SDS011;72645;47.136;15.420;2024-01-06T01:49:01;9.80;;;4.00;;
82869;SDS011;72645;47.136;15.420;2024-01-06T01:51:33;9.60;;;4.30;;
82869;SDS011;72645;47.136;15.420;2024-01-06T01:54:06;6.50;;;4.00;;
82869;SDS011;72645;47.136;15.420;2024-01-06T01:56:38;9.80;;;4.40;;
82869;SDS011;72645;47.136;15.420;2024-01-06T01:59:11;9.20;;;5.40;;
82869;SDS011;72645;47.136;15.420;2024-01-06T02:01:42;10.30;;;4.80;;
82869;SDS011;72645;47.136;15.420;2024-01-06T02:04:13;11.60;;;4.60;;
82869;SDS011;72645;47.136;15.420;2024-01-06T02:06:44;6.00;;;3.00;;
82869;SDS011;72645;47.136;15.420;2024-01-06T02:09:15;6.60;;;3.40;;
82869;SDS011;72645;47.136;15.420;2024-01-06T02:11:46;7.90;;;4.40;;
82869;SDS011;72645;47.136;15.420;2024-01-06T02:14:18;7.50;;;3.50;;
82869;SDS011;72645;47.136;15.420;2024-01-06T02:16:49;5.40;;;4.00;;
82869;SDS011;72645;47.136;15.420;2024-01-06T02:19:20;7.30;;;3.80;;
82869;SDS011;72645;47.136;15.420;2024-01-06T02:21:51;9.00;;;4.40;;
82869;SDS011;72645;47.136;15.420;2024-01-06T02:24:22;12.70;;;4.70;;
82869;SDS011;72645;47.136;15.420;2024-01-06T02:26:53;10.80;;;4.20;;
82869;SDS011;72645;47.136;15.420;2024-01-06T02:29:24;7.50;;;3.60;;
82869;SDS011;72645;47.136;15.420;2024-01-06T02:31:55;7.40;;;3.20;;
82869;SDS011;72645;47.136;15.420;2024-01-06T02:34:27;6.40;;;3.40;;
82869;SDS011;72645;47.136;15.420;2024-01-06T02:36:59;6.40;;;3.60;;
82869;SDS011;72645;47.136;15.420;2024-01-06T02:39:29;7.90;;;3.90;;
82869;SDS011;72645;47.136;15.420;2024-01-06T02:42:00;8.30;;;3.60;;
82869;SDS011;72645;47.136;15.420;2024-01-06T02:44:32;8.00;;;4.00;;
82869;SDS011;72645;47.136;15.420;2024-01-06T02:47:03;6.40;;;3.60;;
82869;SDS011;72645;47.136;15.420;2024-01-06T02:49:37;7.80;;;4.50;;
82869;SDS011;72645;47.136;15.420;2024-01-06T02:52:08;7.40;;;3.90;;
82869;SDS011;72645;47.136;15.420;2024-01-06T02:54:39;6.00;;;3.50;;
82869;SDS011;72645;47.136;15.420;2024-01-06T02:57:10;9.10;;;4.10;;
82869;SDS011;72645;47.136;15.420;2024-01-06T02:59:42;9.20;;;3.90;;
82869;SDS011;72645;47.136;15.420;2024-01-06T03:02:13;5.70;;;3.70;;
82869;SDS011;72645;47.136;15.420;2024-01-06T03:04:43;8.70;;;4.20;;
82869;SDS011;72645;47.136;15.420;2024-01-06T03:07:14;7.10;;;4.00;;
82869;SDS011;72645;47.136;15.420;2024-01-06T03:09:45;8.20;;;4.10;;
82869;SDS011;72645;47.136;15.420;2024-01-06T03:12:16;7.70;;;4.10;;
82869;SDS011;72645;47.136;15.420;2024-01-06T03:14:48;6.80;;;4.00;;
82869;SDS011;72645;47.136;15.420;2024-01-06T03:17:19;9.60;;;3.80;;
82869;SDS011;72645;47.136;15.420;2024-01-06T03:19:50;10.00;;;4.80;;
82869;SDS011;72645;47.136;15.420;2024-01-06T03:22:21;10.40;;;5.00;;
82869;SDS011;72645;47.136;15.420;2024-01-06T03:24:52;11.00;;;5.00;;
82869;SDS011;72645;47.136;15.420;2024-01-06T03:27:23;9.80;;;4.10;;
82869;SDS011;72645;47.136;15.420;2024-01-06T03:29:54;8.50;;;4.00;;
82869;SDS011;72645;47.136;15.420;2024-01-06T03:32:25;11.10;;;4.20;;
82869;SDS011;72645;47.136;15.420;2024-01-06T03:34:58;9.80;;;4.70;;
82869;SDS011;72645;47.136;15.420;2024-01-06T03:37:29;8.80;;;4.00;;
82869;SDS011;72645;47.136;15.420;2024-01-06T03:40:00;9.80;;;4.10;;
82869;SDS011;72645;47.136;15.420;2024-01-06T03:42:31;7.50;;;4.00;;
82869;SDS011;72645;47.136;15.420;2024-01-06T03:45:05;8.10;;;3.90;;
82869;SDS011;72645;47.136;15.420;2024-01-06T03:47:36;10.00;;;5.10;;
82869;SDS011;72645;47.136;15.420;2024-01-06T03:50:09;9.00;;;4.40;;
82869;SDS011;72645;47.136;15.420;2024-01-06T03:52:50;11.30;;;4.00;;
82869;SDS011;72645;47.136;15.420;2024-01-06T03:55:21;7.80;;;4.20;;
82869;SDS011;72645;47.136;15.420;2024-01-06T03:57:53;7.90;;;3.50;;
82869;SDS011;72645;47.136;15.420;2024-01-06T04:00:24;9.10;;;3.70;;
82869;SDS011;72645;47.136;15.420;2024-01-06T04:02:55;10.30;;;5.00;;
82869;SDS011;72645;47.136;15.420;2024-01-06T04:05:26;7.90;;;3.50;;
82869;SDS011;72645;47.136;15.420;2024-01-06T04:07:57;7.30;;;3.70;;
82869;SDS011;72645;47.136;15.420;2024-01-06T04:10:28;7.50;;;4.10;;
82869;SDS011;72645;47.136;15.420;2024-01-06T04:12:59;8.60;;;4.60;;
82869;SDS011;72645;47.136;15.420;2024-01-06T04:15:30;8.70;;;4.30;;
82869;SDS011;72645;47.136;15.420;2024-01-06T04:18:03;9.90;;;4.10;;
82869;SDS011;72645;47.136;15.420;2024-01-06T04:20:34;7.30;;;4.10;;
82869;SDS011;72645;47.136;15.420;2024-01-06T04:23:05;8.20;;;4.00;;
82869;SDS011;72645;47.136;15.420;2024-01-06T04:25:37;6.60;;;3.40;;
82869;SDS011;72645;47.136;15.420;2024-01-06T04:28:08;6.10;;;3.60;;
82869;SDS011;72645;47.136;15.420;2024-01-06T04:30:39;6.50;;;3.40;;
82869;SDS011;72645;47.136;15.420;2024-01-06T04:33:09;9.90;;;5.00;;
82869;SDS011;72645;47.136;15.420;2024-01-06T04:35:41;7.70;;;4.40;;
82869;SDS011;72645;47.136;15.420;2024-01-06T04:38:12;7.50;;;4.50;;
82869;SDS011;72645;47.136;15.420;2024-01-06T04:40:43;8.40;;;3.30;;
82869;SDS011;72645;47.136;15.420;2024-01-06T04:43:14;7.90;;;3.70;;
82869;SDS011;72645;47.136;15.420;2024-01-06T04:45:45;7.30;;;3.60;;
82869;SDS011;72645;47.136;15.420;2024-01-06T04:48:16;10.30;;;4.30;;
82869;SDS011;72645;47.136;15.420;2024-01-06T04:50:47;6.10;;;3.80;;
82869;SDS011;72645;47.136;15.420;2024-01-06T04:53:19;7.00;;;3.90;;
82869;SDS011;72645;47.136;15.420;2024-01-06T04:55:50;7.10;;;3.70;;
82869;SDS011;72645;47.136;15.420;2024-01-06T04:58:21;8.20;;;3.90;;
82869;SDS011;72645;47.136;15.420;2024-01-06T05:00:52;8.70;;;4.10;;
82869;SDS011;72645;47.136;15.420;2024-01-06T05:03:23;9.80;;;3.80;;
82869;SDS011;72645;47.136;15.420;2024-01-06T05:05:54;7.00;;;3.60;;
82869;SDS011;72645;47.136;15.420;2024-01-06T05:08:25;6.90;;;3.80;;
82869;SDS011;72645;47.136;15.420;2024-01-06T05:10:59;7.00;;;3.70;;
82869;SDS011;72645;47.136;15.420;2024-01-06T05:13:30;6.50;;;3.90;;
82869;SDS011;72645;47.136;15.420;2024-01-06T05:16:01;6.10;;;4.10;;
82869;SDS011;72645;47.136;15.420;2024-01-06T05:18:33;7.30;;;3.70;;
82869;SDS011;72645;47.136;15.420;2024-01-06T05:21:04;6.40;;;3.30;;
82869;SDS011;72645;47.136;15.420;2024-01-06T05:23:35;5.00;;;2.90;;
82869;SDS011;72645;47.136;15.420;2024-01-06T05:26:06;10.10;;;4.10;;
82869;SDS011;72645;47.136;15.420;2024-01-06T05:28:39;7.70;;;4.50;;
82869;SDS011;72645;47.136;15.420;2024-01-06T05:31:10;10.10;;;3.90;;
82869;SDS011;72645;47.136;15.420;2024-01-06T05:33:41;7.40;;;4.00;;
82869;SDS011;72645;47.136;15.420;2024-01-06T05:36:13;7.60;;;4.70;;
82869;SDS011;72645;47.136;15.420;2024-01-06T05:38:47;8.60;;;4.70;;
82869;SDS011;72645;47.136;15.420;2024-01-06T05:41:20;7.80;;;4.30;;
82869;SDS011;72645;47.136;15.420;2024-01-06T05:43:51;7.90;;;4.00;;
82869;SDS011;72645;47.136;15.420;2024-01-06T05:46:23;6.40;;;3.90;;
82869;SDS011;72645;47.136;15.420;2024-01-06T05:48:54;6.00;;;3.60;;
82869;SDS011;72645;47.136;15.420;2024-01-06T05:51:25;7.50;;;4.00;;
82869;SDS011;72645;47.136;15.420;2024-01-06T05:53:56;7.10;;;4.20;;
82869;SDS011;72645;47.136;15.420;2024-01-06T05:56:27;5.40;;;3.70;;
82869;SDS011;72645;47.136;15.420;2024-01-06T05:58:58;6.30;;;3.60;;
82869;SDS011;72645;47.136;15.420;2024-01-06T06:01:30;7.00;;;3.60;;
82869;SDS011;72645;47.136;15.420;2024-01-06T06:04:02;9.30;;;4.60;;
82869;SDS011;72645;47.136;15.420;2024-01-06T06:06:33;6.70;;;4.00;;
82869;SDS011;72645;47.136;15.420;2024-01-06T06:09:05;8.00;;;4.20;;
82869;SDS011;72645;47.136;15.420;2024-01-06T06:11:38;6.60;;;4.20;;
82869;SDS011;72645;47.136;15.420;2024-01-06T06:14:09;6.50;;;4.50;;
82869;SDS011;72645;47.136;15.420;2024-01-06T06:16:40;5.60;;;3.80;;
82869;SDS011;72645;47.136;15.420;2024-01-06T06:19:11;7.00;;;3.40;;
82869;SDS011;72645;47.136;15.420;2024-01-06T06:21:43;8.10;;;3.80;;
82869;SDS011;72645;47.136;15.420;2024-01-06T06:24:14;6.70;;;4.20;;
82869;SDS011;72645;47.136;15.420;2024-01-06T06:26:45;7.60;;;4.00;;
82869;SDS011;72645;47.136;15.420;2024-01-06T06:29:16;9.40;;;4.80;;
82869;SDS011;72645;47.136;15.420;2024-01-06T06:31:48;6.90;;;3.80;;
82869;SDS011;72645;47.136;15.420;2024-01-06T06:34:19;7.60;;;3.50;;
82869;SDS011;72645;47.136;15.420;2024-01-06T06:36:51;6.30;;;3.10;;
82869;SDS011;72645;47.136;15.420;2024-01-06T06:39:22;7.20;;;3.50;;
82869;SDS011;72645;47.136;15.420;2024-01-06T06:41:55;7.10;;;4.00;;
82869;SDS011;72645;47.136;15.420;2024-01-06T06:44:26;7.10;;;4.00;;
82869;SDS011;72645;47.136;15.420;2024-01-06T06:46:57;7.00;;;3.80;;
82869;SDS011;72645;47.136;15.420;2024-01-06T06:49:29;10.10;;;3.80;;
82869;SDS011;72645;47.136;15.420;2024-01-06T06:52:00;7.30;;;3.60;;
82869;SDS011;72645;47.136;15.420;2024-01-06T06:54:35;7.00;;;3.30;;
82869;SDS011;72645;47.136;15.420;2024-01-06T06:57:16;6.60;;;3.70;;
82869;SDS011;72645;47.136;15.420;2024-01-06T06:59:48;6.90;;;2.80;;
82869;SDS011;72645;47.136;15.420;2024-01-06T07:02:19;5.90;;;3.20;;
82869;SDS011;72645;47.136;15.420;2024-01-06T07:04:51;7.60;;;3.00;;
82869;SDS011;72645;47.136;15.420;2024-01-06T07:07:23;10.80;;;3.30;;
82869;SDS011;72645;47.136;15.420;2024-01-06T07:09:54;6.70;;;3.50;;
82869;SDS011;72645;47.136;15.420;2024-01-06T07:12:25;6.30;;;4.50;;
82869;SDS011;72645;47.136;15.420;2024-01-06T07:14:57;9.70;;;5.10;;
82869;SDS011;72645;47.136;15.420;2024-01-06T07:17:31;13.90;;;6.60;;
82869;SDS011;72645;47.136;15.420;2024-01-06T07:20:03;15.80;;;6.70;;
82869;SDS011;72645;47.136;15.420;2024-01-06T07:22:38;18.00;;;7.70;;
82869;SDS011;72645;47.136;15.420;2024-01-06T07:25:09;29.80;;;10.10;;
82869;SDS011;72645;47.136;15.420;2024-01-06T07:27:40;32.70;;;11.70;;
82869;SDS011;72645;47.136;15.420;2024-01-06T07:30:11;26.70;;;11.00;;
82869;SDS011;72645;47.136;15.420;2024-01-06T07:32:44;15.60;;;7.60;;
82869;SDS011;72645;47.136;15.420;2024-01-06T07:35:15;14.20;;;6.00;;
82869;SDS011;72645;47.136;15.420;2024-01-06T07:37:46;9.20;;;4.60;;
82869;SDS011;72645;47.136;15.420;2024-01-06T07:40:17;9.70;;;5.70;;
82869;SDS011;72645;47.136;15.420;2024-01-06T07:42:50;12.60;;;7.90;;
82869;SDS011;72645;47.136;15.420;2024-01-06T07:45:22;12.30;;;6.90;;
82869;SDS011;72645;47.136;15.420;2024-01-06T07:47:53;13.70;;;7.10;;
82869;SDS011;72645;47.136;15.420;2024-01-06T07:50:24;13.30;;;6.00;;
82869;SDS011;72645;47.136;15.420;2024-01-06T07:52:55;10.20;;;6.40;;
82869;SDS011;72645;47.136;15.420;2024-01-06T07:55:26;11.00;;;5.70;;
82869;SDS011;72645;47.136;15.420;2024-01-06T07:57:57;10.60;;;6.40;;
82869;SDS011;72645;47.136;15.420;2024-01-06T08:00:28;11.50;;;6.30;;
82869;SDS011;72645;47.136;15.420;2024-01-06T08:03:00;10.70;;;6.30;;
82869;SDS011;72645;47.136;15.420;2024-01-06T08:05:34;13.20;;;7.90;;
82869;SDS011;72645;47.136;15.420;2024-01-06T08:08:06;11.60;;;6.60;;
82869;SDS011;72645;47.136;15.420;2024-01-06T08:10:37;11.70;;;5.50;;
82869;SDS011;72645;47.136;15.420;2024-01-06T08:13:08;8.90;;;6.20;;
82869;SDS011;72645;47.136;15.420;2024-01-06T08:15:39;10.60;;;4.80;;
82869;SDS011;72645;47.136;15.420;2024-01-06T08:18:10;11.20;;;5.90;;
82869;SDS011;72645;47.136;15.420;2024-01-06T08:20:41;10.40;;;5.20;;
82869;SDS011;72645;47.136;15.420;2024-01-06T08:23:12;11.00;;;5.20;;
82869;SDS011;72645;47.136;15.420;2024-01-06T08:25:44;11.80;;;5.00;;
82869;SDS011;72645;47.136;15.420;2024-01-06T08:28:15;12.70;;;4.80;;
82869;SDS011;72645;47.136;15.420;2024-01-06T08:30:46;10.50;;;5.90;;
82869;SDS011;72645;47.136;15.420;2024-01-06T08:33:18;10.60;;;7.10;;
82869;SDS011;72645;47.136;15.420;2024-01-06T08:35:49;8.00;;;5.10;;
82869;SDS011;72645;47.136;15.420;2024-01-06T08:38:20;14.50;;;7.50;;
82869;SDS011;72645;47.136;15.420;2024-01-06T08:40:51;11.90;;;5.30;;
82869;SDS011;72645;47.136;15.420;2024-01-06T08:43:22;10.50;;;5.20;;
82869;SDS011;72645;47.136;15.420;2024-01-06T08:45:53;12.70;;;5.80;;
82869;SDS011;72645;47.136;15.420;2024-01-06T08:48:25;9.80;;;4.60;;
82869;SDS011;72645;47.136;15.420;2024-01-06T08:50:59;9.60;;;5.20;;
82869;SDS011;72645;47.136;15.420;2024-01-06T08:53:30;13.50;;;8.30;;
82869;SDS011;72645;47.136;15.420;2024-01-06T08:56:01;12.10;;;6.20;;
82869;SDS011;72645;47.136;15.420;2024-01-06T08:58:34;16.00;;;7.70;;
82869;SDS011;72645;47.136;15.420;2024-01-06T09:01:05;24.80;;;12.20;;
82869;SDS011;72645;47.136;15.420;2024-01-06T09:03:39;33.40;;;17.60;;
82869;SDS011;72645;47.136;15.420;2024-01-06T09:06:10;39.10;;;19.40;;
82869;SDS011;72645;47.136;15.420;2024-01-06T09:08:41;34.80;;;18.80;;
82869;SDS011;72645;47.136;15.420;2024-01-06T09:11:12;24.80;;;14.50;;
82869;SDS011;72645;47.136;15.420;2024-01-06T09:13:43;24.90;;;14.30;;
82869;SDS011;72645;47.136;15.420;2024-01-06T09:16:14;20.60;;;10.50;;
82869;SDS011;72645;47.136;15.420;2024-01-06T09:18:46;15.70;;;9.50;;
82869;SDS011;72645;47.136;15.420;2024-01-06T09:21:17;16.70;;;9.80;;
82869;SDS011;72645;47.136;15.420;2024-01-06T09:23:48;16.50;;;8.40;;
82869;SDS011;72645;47.136;15.420;2024-01-06T09:26:19;14.70;;;8.90;;
82869;SDS011;72645;47.136;15.420;2024-01-06T09:28:51;17.10;;;9.10;;
82869;SDS011;72645;47.136;15.420;2024-01-06T09:31:21;19.30;;;9.80;;
82869;SDS011;72645;47.136;15.420;2024-01-06T09:33:52;17.60;;;9.60;;
82869;SDS011;72645;47.136;15.420;2024-01-06T09:36:24;18.30;;;8.90;;
82869;SDS011;72645;47.136;15.420;2024-01-06T09:38:55;14.20;;;7.20;;
82869;SDS011;72645;47.136;15.420;2024-01-06T09:41:26;13.30;;;6.20;;
82869;SDS011;72645;47.136;15.420;2024-01-06T09:43:57;15.40;;;6.70;;
82869;SDS011;72645;47.136;15.420;2024-01-06T09:46:28;11.40;;;6.30;;
82869;SDS011;72645;47.136;15.420;2024-01-06T09:49:01;10.70;;;6.20;;
82869;SDS011;72645;47.136;15.420;2024-01-06T09:51:33;10.80;;;5.50;;
82869;SDS011;72645;47.136;15.420;2024-01-06T09:54:09;10.80;;;5.80;;
82869;SDS011;72645;47.136;15.420;2024-01-06T09:56:42;10.70;;;7.20;;
82869;SDS011;72645;47.136;15.420;2024-01-06T09:59:17;22.90;;;11.30;;
82869;SDS011;72645;47.136;15.420;2024-01-06T10:01:48;25.70;;;13.60;;
82869;SDS011;72645;47.136;15.420;2024-01-06T10:04:21;14.70;;;7.00;;
82869;SDS011;72645;47.136;15.420;2024-01-06T10:06:53;19.10;;;10.00;;
82869;SDS011;72645;47.136;15.420;2024-01-06T10:09:27;11.90;;;6.80;;
82869;SDS011;72645;47.136;15.420;2024-01-06T10:11:58;13.30;;;6.90;;
82869;SDS011;72645;47.136;15.420;2024-01-06T10:14:29;15.60;;;8.20;;
82869;SDS011;72645;47.136;15.420;2024-01-06T10:17:01;14.20;;;7.30;;
82869;SDS011;72645;47.136;15.420;2024-01-06T10:19:34;10.70;;;6.00;;
82869;SDS011;72645;47.136;15.420;2024-01-06T10:22:06;11.80;;;6.50;;
82869;SDS011;72645;47.136;15.420;2024-01-06T10:24:38;8.40;;;5.30;;
82869;SDS011;72645;47.136;15.420;2024-01-06T10:27:09;12.00;;;6.50;;
82869;SDS011;72645;47.136;15.420;2024-01-06T10:29:40;9.40;;;5.70;;
82869;SDS011;72645;47.136;15.420;2024-01-06T10:32:11;12.80;;;6.40;;
82869;SDS011;72645;47.136;15.420;2024-01-06T10:34:45;9.00;;;5.60;;
82869;SDS011;72645;47.136;15.420;2024-01-06T10:37:16;10.80;;;6.00;;
82869;SDS011;72645;47.136;15.420;2024-01-06T10:39:47;12.60;;;6.60;;
82869;SDS011;72645;47.136;15.420;2024-01-06T10:42:33;11.70;;;7.40;;
82869;SDS011;72645;47.136;15.420;2024-01-06T10:45:08;12.60;;;6.30;;
82869;SDS011;72645;47.136;15.420;2024-01-06T10:47:41;13.70;;;6.40;;
82869;SDS011;72645;47.136;15.420;2024-01-06T10:50:13;10.00;;;5.80;;
82869;SDS011;72645;47.136;15.420;2024-01-06T10:52:46;12.50;;;6.60;;
82869;SDS011;72645;47.136;15.420;2024-01-06T10:55:19;11.80;;;7.10;;
82869;SDS011;72645;47.136;15.420;2024-01-06T10:57:52;10.90;;;6.10;;
82869;SDS011;72645;47.136;15.420;2024-01-06T11:00:25;18.10;;;9.50;;
82869;SDS011;72645;47.136;15.420;2024-01-06T11:02:56;16.10;;;9.20;;
82869;SDS011;72645;47.136;15.420;2024-01-06T11:05:27;16.40;;;10.40;;
82869;SDS011;72645;47.136;15.420;2024-01-06T11:07:59;14.30;;;8.20;;
82869;SDS011;72645;47.136;15.420;2024-01-06T11:10:30;11.60;;;7.30;;
82869;SDS011;72645;47.136;15.420;2024-01-06T11:13:07;13.00;;;7.60;;
82869;SDS011;72645;47.136;15.420;2024-01-06T11:15:40;9.80;;;7.00;;
82869;SDS011;72645;47.136;15.420;2024-01-06T11:18:32;9.10;;;5.80;;
82869;SDS011;72645;47.136;15.420;2024-01-06T11:21:16;9.90;;;6.20;;
82869;SDS011;72645;47.136;15.420;2024-01-06T11:26:55;9.80;;;6.10;;
82869;SDS011;72645;47.136;15.420;2024-01-06T11:29:27;10.60;;;7.70;;
82869;SDS011;72645;47.136;15.420;2024-01-06T11:35:04;13.70;;;7.80;;
82869;SDS011;72645;47.136;15.420;2024-01-06T11:37:50;13.10;;;9.00;;
82869;SDS011;72645;47.136;15.420;2024-01-06T11:40:25;18.20;;;8.50;;
82869;SDS011;72645;47.136;15.420;2024-01-06T11:43:02;15.80;;;6.80;;
82869;SDS011;72645;47.136;15.420;2024-01-06T11:45:36;11.70;;;7.30;;
82869;SDS011;72645;47.136;15.420;2024-01-06T11:48:10;14.80;;;8.00;;
82869;SDS011;72645;47.136;15.420;2024-01-06T11:50:41;12.90;;;7.40;;
82869;SDS011;72645;47.136;15.420;2024-01-06T11:53:12;11.70;;;6.60;;
82869;SDS011;72645;47.136;15.420;2024-01-06T11:55:43;13.40;;;7.80;;
82869;SDS011;72645;47.136;15.420;2024-01-06T11:58:17;13.50;;;8.90;;
82869;SDS011;72645;47.136;15.420;2024-01-06T12:00:55;13.00;;;8.40;;
82869;SDS011;72645;47.136;15.420;2024-01-06T12:03:27;11.40;;;7.60;;
82869;SDS011;72645;47.136;15.420;2024-01-06T12:06:01;12.70;;;7.60;;
82869;SDS011;72645;47.136;15.420;2024-01-06T12:08:34;12.20;;;8.40;;
82869;SDS011;72645;47.136;15.420;2024-01-06T12:11:05;11.30;;;7.10;;
82869;SDS011;72645;47.136;15.420;2024-01-06T12:13:36;15.00;;;7.70;;
82869;SDS011;72645;47.136;15.420;2024-01-06T12:16:07;11.80;;;7.10;;
82869;SDS011;72645;47.136;15.420;2024-01-06T12:18:38;14.90;;;8.10;;
82869;SDS011;72645;47.136;15.420;2024-01-06T12:21:10;12.50;;;8.10;;
82869;SDS011;72645;47.136;15.420;2024-01-06T12:23:40;11.80;;;7.20;;
82869;SDS011;72645;47.136;15.420;2024-01-06T12:26:11;11.40;;;7.20;;
82869;SDS011;72645;47.136;15.420;2024-01-06T12:28:43;11.60;;;7.50;;
82869;SDS011;72645;47.136;15.420;2024-01-06T12:31:15;12.60;;;7.40;;
82869;SDS011;72645;47.136;15.420;2024-01-06T12:33:47;14.80;;;6.60;;
82869;SDS011;72645;47.136;15.420;2024-01-06T12:36:18;10.30;;;6.50;;
82869;SDS011;72645;47.136;15.420;2024-01-06T12:38:54;10.90;;;7.20;;
82869;SDS011;72645;47.136;15.420;2024-01-06T12:41:26;7.30;;;4.10;;
82869;SDS011;72645;47.136;15.420;2024-01-06T12:44:01;6.10;;;4.10;;
82869;SDS011;72645;47.136;15.420;2024-01-06T12:46:31;5.10;;;3.40;;
82869;SDS011;72645;47.136;15.420;2024-01-06T12:49:03;5.50;;;3.20;;
82869;SDS011;72645;47.136;15.420;2024-01-06T12:51:34;3.80;;;2.70;;
82869;SDS011;72645;47.136;15.420;2024-01-06T12:54:05;4.60;;;2.80;;
82869;SDS011;72645;47.136;15.420;2024-01-06T12:56:36;3.10;;;2.30;;
82869;SDS011;72645;47.136;15.420;2024-01-06T12:59:07;2.60;;;1.40;;
82869;SDS011;72645;47.136;15.420;2024-01-06T13:01:39;2.70;;;1.30;;
82869;SDS011;72645;47.136;15.420;2024-01-06T13:04:11;1.70;;;0.70;;
82869;SDS011;72645;47.136;15.420;2024-01-06T13:06:43;1.40;;;0.80;;
82869;SDS011;72645;47.136;15.420;2024-01-06T13:09:14;1.50;;;0.70;;
82869;SDS011;72645;47.136;15.420;2024-01-06T13:11:45;1.60;;;0.80;;
82869;SDS011;72645;47.136;15.420;2024-01-06T13:14:17;1.20;;;1.00;;
82869;SDS011;72645;47.136;15.420;2024-01-06T13:16:48;1.00;;;0.60;;
82869;SDS011;72645;47.136;15.420;2024-01-06T13:19:19;1.40;;;0.90;;
82869;SDS011;72645;47.136;15.420;2024-01-06T13:21:50;1.20;;;0.60;;
82869;SDS011;72645;47.136;15.420;2024-01-06T13:24:22;1.70;;;1.30;;
82869;SDS011;72645;47.136;15.420;2024-01-06T13:26:53;1.00;;;0.70;;
82869;SDS011;72645;47.136;15.420;2024-01-06T13:29:26;1.20;;;0.60;;
82869;SDS011;72645;47.136;15.420;2024-01-06T13:31:57;1.30;;;0.90;;
82869;SDS011;72645;47.136;15.420;2024-01-06T13:34:28;1.10;;;0.50;;
82869;SDS011;72645;47.136;15.420;2024-01-06T13:37:00;1.00;;;0.80;;
82869;SDS011;72645;47.136;15.420;2024-01-06T13:39:31;0.50;;;0.40;;
82869;SDS011;72645;47.136;15.420;2024-01-06T13:42:04;1.50;;;1.40;;
82869;SDS011;72645;47.136;15.420;2024-01-06T13:44:35;1.20;;;1.10;;
82869;SDS011;72645;47.136;15.420;2024-01-06T13:47:07;0.60;;;0.50;;
82869;SDS011;72645;47.136;15.420;2024-01-06T13:49:37;1.30;;;0.80;;
82869;SDS011;72645;47.136;15.420;2024-01-06T13:52:08;0.70;;;0.70;;
82869;SDS011;72645;47.136;15.420;2024-01-06T13:54:40;1.10;;;0.50;;
82869;SDS011;72645;47.136;15.420;2024-01-06T13:57:11;0.50;;;0.50;;
82869;SDS011;72645;47.136;15.420;2024-01-06T13:59:42;0.60;;;0.20;;
82869;SDS011;72645;47.136;15.420;2024-01-06T14:02:14;1.60;;;0.50;;
82869;SDS011;72645;47.136;15.420;2024-01-06T14:04:45;0.40;;;0.30;;
82869;SDS011;72645;47.136;15.420;2024-01-06T14:07:16;1.10;;;0.60;;
82869;SDS011;72645;47.136;15.420;2024-01-06T14:09:47;0.60;;;0.50;;
82869;SDS011;72645;47.136;15.420;2024-01-06T14:12:19;0.90;;;0.50;;
82869;SDS011;72645;47.136;15.420;2024-01-06T14:14:50;0.60;;;0.60;;
82869;SDS011;72645;47.136;15.420;2024-01-06T14:17:21;1.10;;;0.60;;
82869;SDS011;72645;47.136;15.420;2024-01-06T14:19:52;0.80;;;0.50;;
82869;SDS011;72645;47.136;15.420;2024-01-06T14:22:23;2.60;;;0.50;;
82869;SDS011;72645;47.136;15.420;2024-01-06T14:24:54;2.00;;;0.50;;
82869;SDS011;72645;47.136;15.420;2024-01-06T14:27:27;0.80;;;0.70;;
82869;SDS011;72645;47.136;15.420;2024-01-06T14:29:58;1.30;;;0.70;;
82869;SDS011;72645;47.136;15.420;2024-01-06T14:32:29;0.90;;;0.80;;
82869;SDS011;72645;47.136;15.420;2024-01-06T14:35:01;0.80;;;0.70;;
82869;SDS011;72645;47.136;15.420;2024-01-06T14:37:34;0.70;;;0.50;;
82869;SDS011;72645;47.136;15.420;2024-01-06T14:40:06;1.00;;;0.60;;
82869;SDS011;72645;47.136;15.420;2024-01-06T14:42:37;0.90;;;0.90;;
82869;SDS011;72645;47.136;15.420;2024-01-06T14:45:09;1.10;;;0.50;;
82869;SDS011;72645;47.136;15.420;2024-01-06T14:47:40;0.90;;;0.80;;
82869;SDS011;72645;47.136;15.420;2024-01-06T14:50:11;1.00;;;1.00;;
82869;SDS011;72645;47.136;15.420;2024-01-06T14:52:42;0.40;;;0.40;;
82869;SDS011;72645;47.136;15.420;2024-01-06T14:55:13;0.50;;;0.30;;
82869;SDS011;72645;47.136;15.420;2024-01-06T14:57:44;1.40;;;0.50;;
82869;SDS011;72645;47.136;15.420;2024-01-06T15:00:16;1.00;;;0.40;;